Latest Weather Observations for Esperance Airport

IDW60801

Issued at 7:32 am WST Monday 2 March 2015 (issued every 30 minutes, with the page automatically refreshed every 10 minutes)

About weather observations | Map of weather stations | Latest weather observations for WA | Other Formats
Station Details ID: 009542 Name: ESPERANCE AERO Lat: -33.68 Lon: 121.83 Height: 142.0 m
Data from the previous 72 hours. | See also: Recent months at Esperance Airport
Date/Time
WST
Temp
°C
App
Temp
°C
Dew
Point
Rel
Hum
%
Delta-T
°C
Wind Press
QNH
hPa
Press
MSL
hPa
Rain
since 9 am
mm
Dir
 
Spd
km/h
Gust
km/h
Spd
kts
Gust
kts
02/07:30am 18.7 17.1 14.0 74 2.7 ESE 15 22 8 12 1016.8 1016.3 0.0
02/07:00am 17.9 15.4 13.6 76 2.5 ESE 19 22 10 12 1016.2 1015.8 0.0
02/06:30am 17.1 15.3 13.4 79 2.1 SE 15 17 8 9 1016.1 1015.7 0.0
02/06:00am 16.9 15.4 13.2 79 2.1 ESE 13 17 7 9 1015.6 1015.2 0.0
02/05:30am 17.2 15.7 13.1 77 2.3 ESE 13 15 7 8 1015.5 1015.1 0.0
02/05:00am 17.6 16.6 13.5 77 2.3 ESE 11 13 6 7 1015.2 1014.8 0.0
02/04:30am 17.8 16.4 13.5 76 2.4 E 13 19 7 10 1014.9 1014.5 0.0
02/04:00am 17.9 16.5 13.4 75 2.6 E 13 19 7 10 1014.4 1014.0 0.0
02/03:30am 18.1 16.0 13.6 75 2.6 ENE 17 24 9 13 1014.2 1013.8 0.0
02/03:00am 18.2 16.5 13.7 75 2.6 ENE 15 22 8 12 1014.3 1013.9 0.0
02/02:30am 18.2 16.1 13.5 74 2.7 ENE 17 22 9 12 1014.0 1013.6 0.0
02/02:00am 18.3 16.1 13.4 73 2.8 ENE 17 24 9 13 1013.9 1013.5 0.0
02/01:30am 18.3 16.0 13.0 71 3.0 ENE 17 24 9 13 1013.8 1013.4 0.0
02/01:00am 18.5 16.6 12.9 70 3.2 ENE 15 22 8 12 1014.1 1013.7 0.0
02/12:30am 18.6 15.9 12.8 69 3.3 NE 19 28 10 15 1013.9 1013.5 0.0
02/12:00am 18.8 16.1 12.8 68 3.4 ENE 19 28 10 15 1013.9 1013.5 0.0
 
Date/Time
WST
Temp
°C
App
Temp
°C
Dew
Point
Rel
Hum
%
Delta-T
°C
Wind Press
QNH
hPa
Press
MSL
hPa
Rain
since 9 am
mm
Dir
 
Spd
km/h
Gust
km/h
Spd
kts
Gust
kts
01/11:30pm 19.2 16.8 12.5 65 3.8 ENE 17 26 9 14 1013.8 1013.4 0.0
01/11:00pm 19.4 16.9 12.2 63 4.0 ENE 17 22 9 12 1013.6 1013.1 0.0
01/10:30pm 19.8 17.2 12.1 61 4.3 ENE 17 24 9 13 1013.6 1013.1 0.0
01/10:00pm 20.4 17.4 12.1 59 4.7 ENE 19 28 10 15 1013.4 1012.9 0.0
01/09:30pm 22.2 19.6 10.7 48 6.4 NE 15 22 8 12 1013.4 1012.9 0.0
01/09:00pm 22.5 19.1 10.6 47 6.6 NE 19 30 10 16 1013.1 1012.6 0.0
01/08:30pm 22.8 19.8 10.6 46 6.8 NE 17 24 9 13 1012.7 1012.2 0.0
01/08:00pm 23.2 20.2 10.6 45 7.0 NE 17 30 9 16 1012.6 1012.1 0.0
01/07:30pm 21.1 20.4 14.3 65 4.0 E 11 15 6 8 1012.4 1011.9 0.0
01/07:00pm 21.1 19.3 14.5 66 3.9 ESE 17 20 9 11 1012.1 1011.6 0.0
01/06:30pm 21.5 20.1 14.4 64 4.2 SE 15 19 8 10 1012.2 1011.7 0.0
01/06:00pm 22.1 19.6 14.2 61 4.6 SE 20 24 11 13 1012.1 1011.6 0.0
01/05:30pm 22.6 20.0 13.9 58 5.1 ESE 20 28 11 15 1011.9 1011.4 0.0
01/05:00pm 22.8 19.5 14.1 58 5.1 ESE 24 32 13 17 1011.7 1011.2 0.0
01/04:30pm 23.3 18.6 13.2 53 5.9 ESE 30 37 16 20 1011.5 1011.0 0.0
01/04:00pm 23.9 19.7 13.4 51 6.1 ESE 28 37 15 20 1011.3 1010.8 0.0
01/03:30pm 24.7 19.3 13.9 51 6.4 ESE 35 46 19 25 1011.5 1011.0 0.0
01/03:00pm 25.6 19.9 14.1 49 6.9 SE 37 46 20 25 1011.5 1011.0 0.0
01/02:39pm 25.9 22.4 13.4 46 7.4 ESE 24 44 13 24 1011.7 1011.2 0.0
01/02:30pm 27.9 25.1 10.1 33 10.0 E 15 24 8 13 1011.8 1011.3 0.0
01/02:00pm 27.6 25.3 10.3 34 9.8 ENE 13 26 7 14 1012.0 1011.5 0.0
01/01:30pm 26.9 23.9 9.3 33 9.7 ENE 15 26 8 14 1012.6 1012.1 0.0
01/01:00pm 27.2 23.6 10.4 35 9.5 ENE 20 32 11 17 1013.1 1012.6 0.0
01/12:30pm 26.3 22.8 10.9 38 8.7 ENE 20 32 11 17 1013.7 1013.2 0.0
01/12:00pm 25.7 22.8 11.1 40 8.3 ENE 17 28 9 15 1014.3 1013.9 0.0
01/11:30am 24.6 21.5 11.5 44 7.4 NE 19 24 10 13 1015.1 1014.7 0.0
01/11:00am 24.3 21.6 11.6 45 7.2 NE 17 39 9 21 1016.2 1015.8 0.0
01/10:30am 23.7 21.1 12.0 48 6.7 NE 17 28 9 15 1017.0 1016.5 0.0
01/10:00am 23.5 20.6 12.2 49 6.5 NNE 19 32 10 17 1017.5 1017.0 0.0
01/09:30am 22.5 19.1 11.3 49 6.3 NNE 20 30 11 16 1018.0 1017.5 0.0
01/09:00am 20.9 17.9 12.1 57 5.0 NNE 19 28 10 15 1018.1 1017.6 0.0
01/08:30am 19.5 16.5 12.5 64 3.9 NNE 20 28 11 15 1018.2 1017.7 0.0
01/08:00am 18.5 17.1 13.4 72 2.9 NNE 13 22 7 12 1018.4 1017.9 0.0
01/07:30am 16.8 15.6 12.9 78 2.2 NE 11 19 6 10 1018.3 1017.7 0.0
01/07:00am 15.0 13.2 12.0 82 1.6 ENE 13 17 7 9 1018.2 1017.6 0.0
01/06:30am 13.9 12.6 11.4 85 1.3 ENE 9 15 5 8 1018.4 1017.8 0.0
01/06:00am 13.1 11.8 11.2 88 1.0 ENE 9 11 5 6 1018.2 1017.6 0.0
01/05:30am 13.2 11.8 10.9 86 1.2 ENE 9 13 5 7 1018.0 1017.4 0.0
01/05:00am 13.9 12.2 11.2 84 1.4 ENE 11 17 6 9 1017.7 1017.1 0.0
01/04:30am 14.6 12.6 11.6 82 1.6 ENE 13 19 7 10 1017.7 1017.1 0.0
01/04:00am 14.4 11.6 11.4 82 1.6 NE 17 26 9 14 1017.5 1016.9 0.0
01/03:30am 14.4 12.0 11.4 82 1.6 ENE 15 20 8 11 1017.5 1016.9 0.0
01/03:00am 14.2 12.1 11.2 82 1.6 E 13 20 7 11 1017.6 1017.0 0.0
01/02:30am 14.0 12.3 11.2 83 1.5 ENE 11 15 6 8 1017.7 1017.1 0.0
01/02:00am 14.3 12.2 11.3 82 1.6 ENE 13 17 7 9 1017.9 1017.3 0.0
01/01:30am 14.6 13.0 11.4 81 1.7 NE 11 17 6 9 1018.2 1017.6 0.0
01/01:00am 14.9 13.2 11.3 79 1.9 ENE 11 15 6 8 1018.1 1017.5 0.0
01/12:30am 15.8 13.9 11.8 77 2.2 ENE 13 20 7 11 1018.2 1017.6 0.0
01/12:00am 15.7 14.2 11.9 78 2.1 ENE 11 17 6 9 1018.4 1017.8 0.0
 
Date/Time
WST
Temp
°C
App
Temp
°C
Dew
Point
Rel
Hum
%
Delta-T
°C
Wind Press
QNH
hPa
Press
MSL
hPa
Rain
since 9 am
mm
Dir
 
Spd
km/h
Gust
km/h
Spd
kts
Gust
kts
28/11:30pm 15.4 13.9 11.8 79 2.0 E 11 13 6 7 1018.6 1018.1 0.0
28/11:00pm 15.3 13.7 11.7 79 2.0 E 11 17 6 9 1018.8 1018.3 0.0
28/10:30pm 14.8 12.8 11.6 81 1.7 E 13 19 7 10 1018.9 1018.4 0.0
28/10:00pm 14.4 13.2 11.6 83 1.5 E 9 15 5 8 1019.3 1018.8 0.0
28/09:30pm 14.0 12.3 11.3 84 1.4 E 11 17 6 9 1019.4 1018.9 0.0
28/09:00pm 13.6 11.5 11.3 86 1.2 ESE 13 15 7 8 1019.4 1018.9 0.0
28/08:30pm 13.7 11.6 11.2 85 1.3 ESE 13 13 7 7 1019.4 1018.9 0.0
28/08:00pm 14.4 11.9 11.2 81 1.7 ESE 15 19 8 10 1019.2 1018.7 0.0
28/07:30pm 15.2 12.0 11.4 78 2.1 ESE 19 24 10 13 1018.9 1018.4 0.0
28/07:00pm 15.9 12.3 11.7 76 2.3 ESE 22 28 12 15 1018.7 1018.2 0.0
28/06:30pm 16.7 12.7 11.8 73 2.7 ESE 24 30 13 16 1018.6 1018.1 0.0
28/06:00pm 17.7 12.6 11.9 69 3.2 SE 30 39 16 21 1018.5 1017.9 0.0
28/05:30pm 18.2 13.2 12.2 68 3.3 SE 30 41 16 22 1018.5 1017.9 0.0
28/05:00pm 18.9 13.6 12.6 67 3.5 SE 32 39 17 21 1018.4 1017.8 0.0
28/04:30pm 19.5 15.5 13.0 66 3.7 SE 26 35 14 19 1018.5 1017.9 0.0
28/04:00pm 19.0 14.2 13.0 68 3.4 SE 30 35 16 19 1018.5 1017.9 0.0
28/03:30pm 19.5 15.9 13.0 66 3.7 SSE 24 35 13 19 1018.7 1018.2 0.0
28/03:00pm 19.1 14.5 12.4 65 3.8 SE 28 37 15 20 1018.9 1018.4 0.0
28/02:30pm 19.9 15.3 13.4 66 3.7 SSE 30 35 16 19 1018.7 1018.2 0.0
28/02:00pm 19.9 14.8 13.1 65 3.9 SE 32 39 17 21 1018.7 1018.2 0.0
28/01:30pm 20.0 15.9 13.9 68 3.5 SSE 28 35 15 19 1018.7 1018.2 0.0
28/01:00pm 19.0 15.3 13.8 72 3.0 SSE 26 33 14 18 1018.8 1018.3 0.0
28/12:30pm 19.1 14.6 13.9 72 3.0 SSE 30 39 16 21 1018.8 1018.3 0.0
28/12:00pm 19.0 15.4 14.1 73 2.8 SSE 26 33 14 18 1018.7 1018.2 0.0
28/11:30am 19.6 15.4 14.6 73 2.9 SSE 30 37 16 20 1018.6 1018.1 0.0
28/11:13am 20.8 17.1 17.0 79 2.3 SSE 32 39 17 21 1018.6 1018.1 0.0
28/11:00am 18.7 15.3 15.9 84 1.7 SSE 28 35 15 19 1018.6 1018.1 0.0
28/10:39am 18.3 15.8 17.1 93 0.7 SSE 26 35 14 19 1018.8 1018.3 0.0
28/10:30am 17.7 14.5 16.2 91 0.9 SSE 28 37 15 20 1018.8 1018.3 0.0
28/10:00am 17.4 14.9 16.1 92 0.8 S 24 32 13 17 1018.6 1018.1 0.0
28/09:30am 19.5 17.4 16.2 81 2.0 SE 22 32 12 17 1018.3 1017.7 0.0
28/09:07am 17.9 15.6 16.6 92 0.8 SSE 24 32 13 17 1018.2 1017.6 0.0
28/09:00am 17.8 15.3 17.2 96 0.4 S 26 33 14 18 1018.2 1017.6 2.2
28/08:53am 17.4 14.8 16.9 97 0.3 S 26 33 14 18 1018.1 1017.5 2.2
28/08:44am 17.3 15.0 16.7 96 0.4 S 24 33 13 18 1018.0 1017.4 2.2
28/08:31am 17.4 16.0 16.9 97 0.3 SSE 20 30 11 16 1017.9 1017.3 2.2
28/08:30am 17.3 15.8 16.8 97 0.3 SSE 20 30 11 16 1017.9 1017.3 2.2
28/08:12am 17.5 17.5 17.3 99 0.1 S 13 24 7 13 1017.7 1017.1 2.0
28/08:00am 17.3 18.0 17.1 99 0.1 SSW 9 13 5 7 1017.6 1017.0 1.6
28/07:40am 17.0 18.2 16.8 99 0.1 SSW 6 11 3 6 1017.5 1016.9 1.6
28/07:30am 16.7 18.9 16.5 99 0.1 CALM 0 0 0 0 1017.3 1016.7 1.6
28/07:28am 16.7 18.9 16.5 99 0.1 CALM 0 6 0 3 1017.3 1016.7 1.6
28/07:00am 16.2 16.5 16.0 99 0.1 SW 9 13 5 7 1016.9 1016.3 1.2
28/06:30am 15.9 16.1 15.7 99 0.1 SW 9 11 5 6 1016.6 1016.0 0.2
28/06:13am 15.8 16.3 15.5 98 0.2 WSW 7 11 4 6 1016.3 1015.8 0.0
28/06:00am 15.5 15.9 15.3 99 0.1 WNW 7 9 4 5 1016.0 1015.5 0.0
28/05:30am 15.4 15.8 15.2 99 0.1 WNW 7 11 4 6 1015.4 1014.9 0.0
28/05:00am 14.3 14.2 14.0 98 0.2 NNW 7 9 4 5 1015.1 1014.6 0.0
28/04:30am 14.8 16.3 14.6 99 0.1 CALM 0 0 0 0 1014.5 1014.0 0.0
28/04:00am 15.0 16.6 14.8 99 0.1 CALM 0 0 0 0 1014.3 1013.8 0.0
28/03:30am 14.5 15.9 14.3 99 0.1 CALM 0 0 0 0 1014.2 1013.7 0.0
28/03:00am 14.5 15.8 14.2 98 0.2 CALM 0 0 0 0 1013.9 1013.4 0.0
28/02:30am 14.6 15.9 14.1 97 0.3 CALM 0 0 0 0 1013.6 1013.1 0.0
28/02:00am 14.7 16.0 14.1 96 0.3 CALM 0 0 0 0 1013.5 1013.0 0.0
28/01:30am 15.0 16.3 14.2 95 0.5 CALM 0 0 0 0 1013.5 1013.0 0.0
28/01:00am 14.7 14.2 13.7 94 0.6 WSW 9 11 5 6 1013.6 1013.1 0.0
28/12:30am 15.7 15.2 14.9 95 0.5 SW 11 13 6 7 1013.5 1013.0 0.0
28/12:00am 15.4 15.1 14.4 94 0.6 SSW 9 11 5 6 1013.6 1013.1 0.0
 
Date/Time
WST
Temp
°C
App
Temp
°C
Dew
Point
Rel
Hum
%
Delta-T
°C
Wind Press
QNH
hPa
Press
MSL
hPa
Rain
since 9 am
mm
Dir
 
Spd
km/h
Gust
km/h
Spd
kts
Gust
kts
27/11:30pm 15.6 15.4 14.6 94 0.6 SSW 9 11 5 6 1013.5 1013.0 0.0
27/11:00pm 16.0 16.3 14.9 93 0.6 SSW 7 9 4 5 1013.4 1012.9 0.0
27/10:30pm 16.4 15.9 14.9 91 0.9 SSW 11 13 6 7 1013.3 1012.8 0.0
27/10:00pm 17.1 16.0 15.4 90 1.0 SSW 15 19 8 10 1013.1 1012.6 0.0
27/09:30pm 17.6 16.7 15.8 89 1.1 SSW 15 17 8 9 1013.1 1012.6 0.0
27/09:00pm 18.0 16.3 15.8 87 1.3 SSW 19 24 10 13 1012.7 1012.2 0.0
27/08:37pm 18.7 16.6 16.1 85 1.6 S 22 30 12 16 1012.4 1011.8 0.0
27/08:30pm 18.8 16.3 16.2 85 1.6 SSW 24 30 13 16 1012.2 1011.6 0.0
27/08:00pm 19.2 16.6 16.8 86 1.5 SSW 26 35 14 19 1012.0 1011.4 0.0
27/07:55pm 19.3 17.1 16.9 86 1.5 SSW 24 33 13 18 1011.9 1011.3 0.0
27/07:30pm 19.5 17.1 16.5 83 1.8 SSW 24 33 13 18 1011.5 1010.9 0.0
27/07:00pm 19.8 16.3 16.6 82 1.9 SSW 30 43 16 23 1010.8 1010.2 0.0
27/06:30pm 19.9 16.5 16.7 82 1.9 SSW 30 43 16 23 1009.8 1009.2 0.0
27/06:16pm 20.1 16.4 16.9 82 2.0 SSW 32 46 17 25 1009.6 1009.0 0.0
27/06:00pm 20.1 16.5 17.3 84 1.7 SSW 32 43 17 23 1009.3 1008.7 0.0
27/05:30pm 20.5 17.2 17.9 85 1.6 SSW 32 41 17 22 1008.6 1008.1 0.0
27/05:00pm 20.8 17.7 18.4 86 1.5 S 32 39 17 21 1008.0 1007.5 0.0
27/04:44pm 20.6 18.7 19.3 92 0.8 S 28 37 15 20 1007.6 1007.1 0.0
27/04:30pm 20.2 17.5 19.2 94 0.6 SSW 32 44 17 24 1007.6 1007.1 0.0
27/04:18pm 20.6 17.8 19.1 91 1.0 SSW 32 41 17 22 1007.3 1006.8 0.0
27/04:08pm 21.4 18.5 18.8 85 1.6 SSW 32 41 17 22 1007.1 1006.6 0.0
27/04:00pm 22.1 19.1 18.7 81 2.2 SSW 32 41 17 22 1007.0 1006.5 0.0
27/03:30pm 23.1 19.7 18.2 74 3.1 SSW 33 43 18 23 1006.7 1006.2 0.0
27/03:00pm 23.4 19.7 18.3 73 3.2 SSW 35 44 19 24 1006.2 1005.6 0.0
27/02:30pm 25.3 21.7 18.5 66 4.3 SSW 35 44 19 24 1006.1 1005.5 0.0
27/02:00pm 26.3 22.6 18.4 61 5.1 SSW 35 46 19 25 1005.8 1005.2 0.0
27/01:30pm 26.1 23.2 18.0 61 5.1 SSW 30 41 16 22 1005.6 1005.0 0.0
27/01:00pm 26.4 23.4 17.7 58 5.5 SSW 30 43 16 23 1005.6 1005.0 0.0
27/12:30pm 26.6 24.3 18.5 61 5.2 SSW 28 37 15 20 1005.2 1004.6 0.0
27/12:00pm 26.6 26.1 19.0 63 4.9 SW 20 28 11 15 1005.3 1004.7 0.0
27/11:30am 27.1 26.8 19.2 62 5.1 S 19 24 10 13 1004.8 1004.2 0.0
27/11:00am 28.2 29.0 19.1 57 5.9 WSW 13 22 7 12 1004.8 1004.2 0.0
27/10:30am 27.7 27.8 19.2 60 5.5 SSW 17 26 9 14 1005.0 1004.4 0.0
27/10:00am 27.8 28.5 18.8 58 5.8 WSW 13 20 7 11 1004.9 1004.3 0.0
27/09:30am 26.7 26.9 18.6 61 5.2 W 15 24 8 13 1005.0 1004.4 0.0
27/09:00am 26.2 26.4 18.6 63 4.9 W 15 20 8 11 1005.1 1004.5 0.2
27/08:30am 25.2 25.3 18.4 66 4.3 WNW 15 20 8 11 1005.3 1004.7 0.2
27/08:00am 24.2 25.0 18.2 69 3.8 NNW 11 17 6 9 1005.1 1004.5 0.2

Other Formats:

Comma delimited format used in spreadsheet applications
http://www.bom.gov.au/fwo/IDW60801/IDW60801.95638.axf

JavaScript Object Notation format (JSON) in row-major order
http://www.bom.gov.au/fwo/IDW60801/IDW60801.95638.json